KSJC/SJC METAR and TAF weather

Enter ICAO airport designator
Station Type Date Time Source
KSJC METAR 2019/08/18 18:53 UTC NOAA

KSJC 181853Z 17012KT 10SM FEW010 23/13 A2988 RMK AO2 WSHFT 1832 SLP117 T02330133 $


Station Type Date Time Source
KSJC Decoded METAR 2019/08/18 18:53 UTC NOAA

Station name not available
Aug 18, 2019 - 02:53 PM EDT / 2019.08.18 1853 UTC
Wind: from the S (170 degrees) at 14 MPH (12 KT):0
Visibility: 10 mile(s):0
Sky conditions: mostly clear
Temperature: 73.9 F (23.3 C)
Dew Point: 55.9 F (13.3 C)
Relative Humidity: 53%
Pressure (altimeter): 29.88 in. Hg (1011 hPa)
ob: KSJC 181853Z 17012KT 10SM FEW010 23/13 A2988 RMK AO2 WSHFT 1832 SLP117 T02330133
cycle: 19

Station Type Date Time Source
KSJC TAF 2019/08/18 18:27 UTC NOAA

TAF KSJC 181724Z 1818/1918 14011KT P6SM FEW010
FM182000 23012KT P6SM SKC
FM182300 32012KT P6SM SKC
FM190400 VRB05KT P6SM FEW025
FM190900 VRB03KT P6SM SKC
FM191200 15008KT P6SM FEW012

Example: see airport list